Girdwood, Alaska
Current Conditions -  °F | °C
As of 7:53 PM on Saturday 22 Nov 2014 (Local Time) from PATO Reporting Station
Overcast Overcast  
Wind Chill: 30°   Ceiling: 3500
Heat Index: 37°   Visibility: 10mi
Dew Point: 35°   Wind: 9mph
Humidity: 93%   Direction: 150°SSE
Pressure: 29.21"   Gusts: 23mph
Location:  60.95°N, 149.16°W
Report Text: PATO 230453Z AUTO 15008G20KT 100V190 10SM FEW025 OVC035 03/02 A2921 RMK AO2 RAE22 SLP891 P0000 T00280017 TSNO
Loading
Personal Weather Stations






























Interactive Weather Map New forecast layout! Learn more

10-Day Weather Forecast

Advertisements
Track Severe Weather on mobile